createdAt,value
2019-01-19T00:00:06.683Z,-933.76
2019-01-19T00:01:06.837Z,-925.68
2019-01-19T00:02:07.094Z,-928.37
2019-01-19T00:03:07.163Z,-926.84
2019-01-19T00:04:07.310Z,-929.61
2019-01-19T00:05:10.543Z,-930.41
2019-01-19T00:06:07.655Z,-925.16
2019-01-19T00:07:07.815Z,-924.97
2019-01-19T00:08:07.984Z,-921.52
2019-01-19T00:09:08.135Z,-917.88
2019-01-19T00:10:08.363Z,-923.77
2019-01-19T00:11:08.455Z,-929.40
2019-01-19T00:12:08.608Z,-926.46
2019-01-19T00:13:08.797Z,-925.40
2019-01-19T00:14:08.945Z,-926.36
2019-01-19T00:15:09.104Z,-926.74
2019-01-19T00:16:09.298Z,-930.13
2019-01-19T00:17:09.424Z,-925.34
2019-01-19T00:18:09.644Z,-928.98
2019-01-19T00:19:09.728Z,-929.18
2019-01-19T00:20:09.894Z,-926.16
2019-01-19T00:21:10.074Z,-926.15
2019-01-19T00:22:10.211Z,-931.36
2019-01-19T00:23:10.390Z,-928.71
2019-01-19T00:24:10.521Z,-927.79
2019-01-19T00:25:10.708Z,-925.75
2019-01-19T00:26:10.919Z,-925.13
2019-01-19T00:27:11.065Z,-921.91
2019-01-19T00:28:11.194Z,-929.47
2019-01-19T00:29:11.321Z,-930.33
2019-01-19T00:30:11.515Z,-925.78
2019-01-19T00:31:11.674Z,-925.11
2019-01-19T00:32:11.835Z,-923.19
2019-01-19T00:33:12.000Z,-920.55
2019-01-19T00:34:12.149Z,-929.50
2019-01-19T00:35:17.835Z,-923.62
2019-01-19T00:36:13.474Z,-919.11
2019-01-19T00:37:12.641Z,-929.14
2019-01-19T00:38:12.791Z,-929.65
2019-01-19T00:39:12.922Z,-928.28
2019-01-19T00:40:13.081Z,-924.60
2019-01-19T00:41:13.277Z,-926.95
2019-01-19T00:42:13.677Z,-930.69
2019-01-19T00:43:13.680Z,-926.68
2019-01-19T00:44:13.736Z,-925.94
2019-01-19T00:45:13.874Z,-927.35
2019-01-19T00:46:14.084Z,-922.60
2019-01-19T00:47:14.227Z,-925.15
2019-01-19T00:48:14.396Z,-927.36
2019-01-19T00:49:14.531Z,-928.61
2019-01-19T00:50:14.700Z,-928.08
2019-01-19T00:51:14.921Z,-928.69
2019-01-19T00:52:15.020Z,-928.31
2019-01-19T00:53:15.186Z,-933.81
2019-01-19T00:54:15.332Z,-931.37
2019-01-19T00:55:15.491Z,-928.63
2019-01-19T00:56:15.671Z,-931.40
2019-01-19T00:57:15.801Z,-928.37
2019-01-19T00:58:15.988Z,-926.38
2019-01-19T00:59:16.208Z,-927.60
2019-01-19T01:00:16.313Z,-928.44
2019-01-19T01:01:16.502Z,-927.14
2019-01-19T01:02:16.625Z,-928.84
2019-01-19T01:03:16.783Z,-920.91
2019-01-19T01:04:16.959Z,-924.01
2019-01-19T01:05:17.125Z,-924.73
2019-01-19T01:06:17.326Z,-924.03
2019-01-19T01:07:17.451Z,-923.28
2019-01-19T01:08:17.682Z,-925.61
2019-01-19T01:09:17.790Z,-928.90
2019-01-19T01:10:17.950Z,-921.17
2019-01-19T01:11:18.321Z,-920.79
2019-01-19T01:12:18.273Z,-923.65
2019-01-19T01:13:18.419Z,-926.85
2019-01-19T01:14:18.596Z,-925.20
2019-01-19T01:15:18.795Z,-924.60
2019-01-19T01:16:19.107Z,-921.24
2019-01-19T01:17:19.099Z,-925.59
2019-01-19T01:18:19.255Z,-927.42
2019-01-19T01:19:19.433Z,-922.65
2019-01-19T01:20:19.585Z,-921.45
2019-01-19T01:21:19.773Z,-918.35
2019-01-19T01:22:19.920Z,-926.35
2019-01-19T01:23:20.071Z,-919.83
2019-01-19T01:24:20.266Z,-927.50
2019-01-19T01:25:20.372Z,-929.68
2019-01-19T01:26:20.556Z,-924.29
2019-01-19T01:27:20.711Z,-929.23
2019-01-19T01:28:20.860Z,-931.73
2019-01-19T01:29:21.037Z,-927.63
2019-01-19T01:30:21.164Z,-927.56
2019-01-19T01:31:21.360Z,-919.55
2019-01-19T01:32:21.588Z,-927.91
2019-01-19T01:33:21.653Z,-922.44
2019-01-19T01:34:21.838Z,-926.98
2019-01-19T01:35:21.979Z,-920.13
2019-01-19T01:36:22.151Z,-923.46
2019-01-19T01:37:22.332Z,-923.65
2019-01-19T01:38:22.472Z,-925.96
2019-01-19T01:39:22.653Z,-919.28
2019-01-19T01:40:22.811Z,-924.03
2019-01-19T01:41:23.015Z,-921.88
2019-01-19T01:42:23.133Z,-923.97
2019-01-19T01:43:23.275Z,-915.90
2019-01-19T01:44:23.456Z,-973.72
2019-01-19T01:45:23.593Z,-979.86
2019-01-19T01:46:23.773Z,-978.94
2019-01-19T01:47:23.918Z,-980.42
2019-01-19T01:48:24.086Z,-979.33
2019-01-19T01:49:24.376Z,-979.14
2019-01-19T01:50:24.414Z,-973.97
2019-01-19T01:51:24.603Z,-978.37
2019-01-19T01:52:24.724Z,-976.47
2019-01-19T01:53:24.893Z,-974.89
2019-01-19T01:54:25.076Z,-977.69
2019-01-19T01:55:25.283Z,-978.50
2019-01-19T01:56:25.405Z,-979.62
2019-01-19T01:57:25.680Z,-977.61
2019-01-19T01:58:25.701Z,-978.83
2019-01-19T01:59:25.868Z,-973.40
2019-01-19T02:00:26.019Z,-981.29
2019-01-19T02:01:26.196Z,-987.14
2019-01-19T02:02:26.368Z,-985.51
2019-01-19T02:03:26.484Z,-982.52
2019-01-19T02:04:26.682Z,-983.43
2019-01-19T02:05:26.892Z,-976.72
2019-01-19T02:06:26.997Z,-980.62
2019-01-19T02:07:27.158Z,-977.16
2019-01-19T02:08:27.310Z,-984.72
2019-01-19T02:09:27.473Z,-976.04
2019-01-19T02:10:27.626Z,-978.72
2019-01-19T02:11:27.807Z,-978.50
2019-01-19T02:12:27.981Z,-983.35
2019-01-19T02:13:28.156Z,-983.19
2019-01-19T02:14:28.298Z,-978.36
2019-01-19T02:15:28.452Z,-982.72
2019-01-19T02:16:28.627Z,-982.19
2019-01-19T02:17:28.819Z,-990.06
2019-01-19T02:18:28.972Z,-984.34
2019-01-19T02:19:29.147Z,-984.02
2019-01-19T02:20:29.287Z,-980.62
2019-01-19T02:21:29.450Z,-980.87
2019-01-19T02:22:29.986Z,-980.15
2019-01-19T02:23:29.806Z,-980.29
2019-01-19T02:24:29.970Z,-978.45
2019-01-19T02:25:30.092Z,-979.67
2019-01-19T02:26:30.255Z,-989.89
2019-01-19T02:27:30.448Z,-981.29
2019-01-19T02:28:30.594Z,-982.38
2019-01-19T02:29:30.764Z,-977.40
2019-01-19T02:30:31.023Z,-979.38
2019-01-19T02:31:31.070Z,-979.09
2019-01-19T02:32:31.294Z,-982.49
2019-01-19T02:33:31.428Z,-979.76
2019-01-19T02:34:31.587Z,-973.55
2019-01-19T02:35:31.725Z,-976.36
2019-01-19T02:36:31.878Z,-982.64
2019-01-19T02:37:32.056Z,-980.14
2019-01-19T02:38:32.292Z,-976.61
2019-01-19T02:39:32.383Z,-975.56
2019-01-19T02:40:32.525Z,-976.33
2019-01-19T02:41:32.686Z,-974.52
2019-01-19T02:42:32.845Z,-974.76
2019-01-19T02:43:33.013Z,-972.80
2019-01-19T02:44:33.197Z,-976.43
2019-01-19T02:45:33.346Z,-976.50
2019-01-19T02:46:33.533Z,-974.32
2019-01-19T02:47:33.646Z,-973.23
2019-01-19T02:48:33.807Z,-979.84
2019-01-19T02:49:33.992Z,-973.32
2019-01-19T02:50:34.139Z,-980.21
2019-01-19T02:51:34.291Z,-976.53
2019-01-19T02:52:34.479Z,-977.00
2019-01-19T02:53:34.762Z,-977.71
2019-01-19T02:54:34.830Z,-974.89
2019-01-19T02:55:34.989Z,-972.60
2019-01-19T02:56:35.117Z,-971.72
2019-01-19T02:57:35.314Z,-977.05
2019-01-19T02:58:35.445Z,-974.78
2019-01-19T02:59:35.618Z,-977.13
2019-01-19T03:00:35.761Z,-977.32
2019-01-19T03:01:35.932Z,-975.65
2019-01-19T03:02:36.107Z,-977.55
2019-01-19T03:03:36.411Z,-973.62
2019-01-19T03:04:36.404Z,-975.80
2019-01-19T03:05:36.555Z,-973.92
2019-01-19T03:06:36.717Z,-984.30
2019-01-19T03:07:36.897Z,-979.21
2019-01-19T03:08:37.054Z,-978.93
2019-01-19T03:09:37.236Z,-980.35
2019-01-19T03:10:37.356Z,-984.02
2019-01-19T03:11:37.599Z,-979.24
2019-01-19T03:12:37.707Z,-973.12
2019-01-19T03:13:37.856Z,-973.51
2019-01-19T03:14:38.025Z,-971.99
2019-01-19T03:15:38.161Z,-976.74
2019-01-19T03:16:38.321Z,-977.57
2019-01-19T03:17:38.516Z,-981.34
2019-01-19T03:18:38.668Z,-978.12
2019-01-19T03:19:38.862Z,-977.70
2019-01-19T03:20:38.986Z,-983.03
2019-01-19T03:21:39.139Z,-980.82
2019-01-19T03:22:39.326Z,-976.04
2019-01-19T03:23:39.479Z,-980.29
2019-01-19T03:24:39.658Z,-983.19
2019-01-19T03:25:39.819Z,-980.12
2019-01-19T03:26:39.982Z,-980.86
2019-01-19T03:27:40.204Z,-980.82
2019-01-19T03:28:40.333Z,-983.25
2019-01-19T03:29:40.480Z,-980.85
2019-01-19T03:30:40.651Z,-982.00
2019-01-19T03:31:40.795Z,-983.56
2019-01-19T03:32:40.977Z,-987.40
2019-01-19T03:33:41.098Z,-981.40
2019-01-19T03:34:41.290Z,-987.20
2019-01-19T03:35:41.468Z,-983.03
2019-01-19T03:36:41.720Z,-985.83
2019-01-19T03:37:41.775Z,-984.65
2019-01-19T03:38:41.905Z,-983.22
2019-01-19T03:39:42.091Z,-982.06
2019-01-19T03:40:42.255Z,-983.96
2019-01-19T03:41:42.400Z,-986.46
2019-01-19T03:42:42.564Z,-985.41
2019-01-19T03:43:42.717Z,-985.13
2019-01-19T03:44:42.971Z,-983.24
2019-01-19T03:45:43.073Z,-985.44
2019-01-19T03:46:43.204Z,-983.35
2019-01-19T03:47:43.375Z,-982.08
2019-01-19T03:48:43.515Z,-985.85
2019-01-19T03:49:43.671Z,-980.71
2019-01-19T03:50:43.884Z,-979.10
2019-01-19T03:51:44.010Z,-978.54
2019-01-19T03:52:44.253Z,-984.43
2019-01-19T03:53:44.312Z,-984.08
2019-01-19T03:54:44.465Z,-980.85
2019-01-19T03:55:44.676Z,-984.20
2019-01-19T03:56:44.818Z,-980.70
2019-01-19T03:57:44.986Z,-982.27
2019-01-19T03:58:45.368Z,-982.70
2019-01-19T03:59:45.307Z,-975.27
2019-01-19T04:00:45.509Z,-972.89
2019-01-19T04:01:45.598Z,-981.56
2019-01-19T04:02:45.795Z,-974.21
2019-01-19T04:03:45.955Z,-977.57
2019-01-19T04:04:46.100Z,-977.13
2019-01-19T04:05:46.337Z,-979.58
2019-01-19T04:06:46.408Z,-978.81
2019-01-19T04:07:46.608Z,-977.49
2019-01-19T04:08:46.783Z,-975.92
2019-01-19T04:09:47.538Z,-976.29
2019-01-19T04:10:47.407Z,-971.48
2019-01-19T04:11:47.225Z,-971.39
2019-01-19T04:12:47.405Z,-972.32
2019-01-19T04:13:47.570Z,-976.04
2019-01-19T04:14:47.734Z,-976.35
2019-01-19T04:15:47.919Z,-972.31
2019-01-19T04:16:48.066Z,-972.23
2019-01-19T04:17:48.297Z,-975.97
2019-01-19T04:18:48.370Z,-971.31
2019-01-19T04:19:48.532Z,-970.21
2019-01-19T04:20:48.709Z,-973.03
2019-01-19T04:21:48.867Z,-970.59
2019-01-19T04:22:49.012Z,-972.01
2019-01-19T04:23:49.192Z,-971.50
2019-01-19T04:24:49.380Z,-970.61
2019-01-19T04:25:49.627Z,-971.48
2019-01-19T04:26:49.693Z,-971.79
2019-01-19T04:27:49.835Z,-961.61
2019-01-19T04:28:50.028Z,-960.39
2019-01-19T04:29:50.192Z,-960.66
2019-01-19T04:30:50.381Z,-965.69
2019-01-19T04:31:50.543Z,-964.23
2019-01-19T04:32:50.725Z,-962.10
2019-01-19T04:33:50.881Z,-963.27
2019-01-19T04:34:50.987Z,-962.17
2019-01-19T04:35:51.172Z,-969.85
2019-01-19T04:36:51.331Z,-967.61
2019-01-19T04:37:51.461Z,-971.27
2019-01-19T04:38:51.648Z,-972.41
2019-01-19T04:39:51.779Z,-974.92
2019-01-19T04:40:51.990Z,-974.26
2019-01-19T04:41:52.169Z,-971.88
2019-01-19T04:42:52.441Z,-974.20
2019-01-19T04:43:52.467Z,-971.74
2019-01-19T04:44:52.590Z,-979.25
2019-01-19T04:45:52.786Z,-976.43
2019-01-19T04:46:52.956Z,-978.30
2019-01-19T04:47:53.105Z,-976.18
2019-01-19T04:48:53.281Z,-974.32
2019-01-19T04:49:53.446Z,-973.03
2019-01-19T04:50:53.690Z,-971.89
2019-01-19T04:51:53.817Z,-970.88
2019-01-19T04:52:53.909Z,-975.49
2019-01-19T04:53:55.606Z,-970.87
2019-01-19T04:54:54.232Z,-971.47
2019-01-19T04:55:54.393Z,-969.77
2019-01-19T04:56:54.576Z,-957.80
2019-01-19T04:57:54.723Z,-960.00
2019-01-19T04:58:55.041Z,-960.01
2019-01-19T04:59:55.045Z,-961.27
2019-01-19T05:00:55.208Z,-964.53
2019-01-19T05:01:55.391Z,-971.83
2019-01-19T05:02:55.529Z,-975.22
2019-01-19T05:03:55.712Z,-972.12
2019-01-19T05:04:55.851Z,-968.46
2019-01-19T05:05:56.026Z,-971.68
2019-01-19T05:06:56.244Z,-971.07
2019-01-19T05:07:57.037Z,-969.55
2019-01-19T05:08:56.501Z,-970.30
2019-01-19T05:09:56.644Z,-967.41
2019-01-19T05:10:57.133Z,-963.70
2019-01-19T05:11:56.977Z,-965.23
2019-01-19T05:12:57.122Z,-965.46
2019-01-19T05:13:57.304Z,-962.25
2019-01-19T05:14:57.513Z,-958.10
2019-01-19T05:15:57.606Z,-905.75
2019-01-19T05:16:57.764Z,-951.39
2019-01-19T05:17:57.933Z,-946.50
2019-01-19T05:18:58.092Z,-943.64
2019-01-19T05:19:58.252Z,-951.01
2019-01-19T05:20:58.428Z,-951.56
2019-01-19T05:21:58.576Z,-946.85
2019-01-19T05:22:58.772Z,-958.28
2019-01-19T05:23:58.993Z,-956.26
2019-01-19T05:24:59.058Z,-962.72
2019-01-19T05:25:59.234Z,-961.51
2019-01-19T05:26:59.378Z,-964.75
2019-01-19T05:27:59.547Z,-955.08
2019-01-19T05:28:59.720Z,-953.90
2019-01-19T05:29:59.846Z,-953.70
2019-01-19T05:31:00.039Z,-950.74
2019-01-19T05:32:00.312Z,-953.41
2019-01-19T05:33:00.351Z,-953.34
2019-01-19T05:34:00.522Z,-958.73
2019-01-19T05:35:00.686Z,-958.08
2019-01-19T05:36:00.877Z,-960.76
2019-01-19T05:37:01.046Z,-967.13
2019-01-19T05:38:01.946Z,-955.19
2019-01-19T05:39:01.368Z,-957.46
2019-01-19T05:40:01.601Z,-950.77
2019-01-19T05:41:01.660Z,-952.51
2019-01-19T05:42:01.857Z,-951.08
2019-01-19T05:43:01.994Z,-950.51
2019-01-19T05:44:02.163Z,-949.29
2019-01-19T05:45:02.313Z,-943.85
2019-01-19T05:46:02.468Z,-956.54
2019-01-19T05:47:02.647Z,-948.36
2019-01-19T05:48:02.857Z,-955.31
2019-01-19T05:49:02.980Z,-958.14
2019-01-19T05:50:03.120Z,-953.66
2019-01-19T05:51:03.283Z,-958.28
2019-01-19T05:52:03.439Z,-958.91
2019-01-19T05:53:03.614Z,-956.95
2019-01-19T05:54:03.767Z,-961.26
2019-01-19T05:55:03.918Z,-953.63
2019-01-19T05:56:04.118Z,-956.28
2019-01-19T05:57:04.317Z,-954.43
2019-01-19T05:58:04.467Z,-951.23
2019-01-19T05:59:04.618Z,-956.97
2019-01-19T06:00:04.778Z,-951.10
2019-01-19T06:01:04.940Z,-955.98
2019-01-19T06:02:05.119Z,-953.24
2019-01-19T06:03:05.275Z,-958.52
2019-01-19T06:04:05.424Z,-960.89
2019-01-19T06:05:05.690Z,-964.92
2019-01-19T06:06:05.741Z,-964.62
2019-01-19T06:07:05.920Z,-963.12
2019-01-19T06:08:06.065Z,-962.52
2019-01-19T06:09:06.238Z,-962.31
2019-01-19T06:10:06.383Z,-957.91
2019-01-19T06:11:06.559Z,-949.24
2019-01-19T06:12:06.727Z,-945.59
2019-01-19T06:13:07.001Z,-944.00
2019-01-19T06:14:07.033Z,-944.51
2019-01-19T06:15:07.187Z,-944.67
2019-01-19T06:16:07.354Z,-937.84
2019-01-19T06:17:07.520Z,-936.41
2019-01-19T06:18:07.668Z,-947.93
2019-01-19T06:19:07.840Z,-942.67
2019-01-19T06:20:07.991Z,-952.73
2019-01-19T06:21:08.190Z,-947.68
2019-01-19T06:22:08.317Z,-951.21
2019-01-19T06:23:08.461Z,-942.60
2019-01-19T06:24:08.660Z,-947.39
2019-01-19T06:25:08.769Z,-937.65
2019-01-19T06:26:08.961Z,-939.09
2019-01-19T06:27:09.120Z,-941.01
2019-01-19T06:28:09.263Z,-946.90
2019-01-19T06:29:09.465Z,-939.29
2019-01-19T06:30:09.548Z,-945.24
2019-01-19T06:31:09.756Z,-947.51
2019-01-19T06:32:09.924Z,-947.95
2019-01-19T06:33:10.082Z,-946.55
2019-01-19T06:34:10.235Z,-949.45
2019-01-19T06:35:10.418Z,-946.10
2019-01-19T06:36:10.589Z,-948.63
2019-01-19T06:37:10.758Z,-947.72
2019-01-19T06:38:11.004Z,-946.26
2019-01-19T06:39:11.097Z,-946.53
2019-01-19T06:40:11.277Z,-949.30
2019-01-19T06:41:11.417Z,-952.68
2019-01-19T06:42:11.613Z,-943.77
2019-01-19T06:43:11.776Z,-944.98
2019-01-19T06:44:11.950Z,-948.23
2019-01-19T06:45:12.114Z,-949.92
2019-01-19T06:46:12.392Z,-950.94
2019-01-19T06:47:12.438Z,-947.38
2019-01-19T06:48:12.596Z,-943.50
2019-01-19T06:49:12.760Z,-952.94
2019-01-19T06:50:12.940Z,-955.63
2019-01-19T06:51:13.107Z,-952.15
2019-01-19T06:52:13.255Z,-955.13
2019-01-19T06:53:13.400Z,-955.59
2019-01-19T06:54:13.655Z,-957.38
2019-01-19T06:55:13.742Z,-957.80
2019-01-19T06:56:13.902Z,-955.90
2019-01-19T06:57:14.059Z,-952.86
2019-01-19T06:58:14.198Z,-956.58
2019-01-19T06:59:17.516Z,-952.85
2019-01-19T07:00:14.551Z,-951.52
2019-01-19T07:01:14.709Z,-947.77
2019-01-19T07:02:14.927Z,-948.41
2019-01-19T07:03:15.000Z,-949.02
2019-01-19T07:04:15.153Z,-949.11
2019-01-19T07:05:15.340Z,-950.15
2019-01-19T07:06:15.503Z,-955.12
2019-01-19T07:07:15.672Z,-946.36
2019-01-19T07:08:15.807Z,-954.42
2019-01-19T07:09:15.971Z,-949.86
2019-01-19T07:10:16.167Z,-949.43
2019-01-19T07:11:16.388Z,-945.90
2019-01-19T07:12:16.483Z,-942.44
2019-01-19T07:13:16.627Z,-948.82
2019-01-19T07:14:16.786Z,-946.73
2019-01-19T07:15:17.175Z,-945.53
2019-01-19T07:16:17.124Z,-941.22
2019-01-19T07:17:17.301Z,-942.50
2019-01-19T07:18:17.478Z,-943.35
2019-01-19T07:19:17.746Z,-942.99
2019-01-19T07:20:17.775Z,-942.39
2019-01-19T07:21:17.941Z,-944.07
2019-01-19T07:22:18.120Z,-944.24
2019-01-19T07:23:18.259Z,-946.75
2019-01-19T07:24:18.419Z,-945.63
2019-01-19T07:25:18.592Z,-944.88
2019-01-19T07:26:18.745Z,-943.96
2019-01-19T07:27:19.042Z,-949.32
2019-01-19T07:28:19.071Z,-944.01
2019-01-19T07:29:19.231Z,-940.66
2019-01-19T07:30:19.413Z,-936.06
2019-01-19T07:31:19.551Z,-937.86
2019-01-19T07:32:19.714Z,-942.83
2019-01-19T07:33:19.900Z,-948.20
2019-01-19T07:34:20.062Z,-940.45
2019-01-19T07:35:20.284Z,-945.49
2019-01-19T07:36:20.361Z,-945.27
2019-01-19T07:37:20.512Z,-945.70
2019-01-19T07:38:20.701Z,-950.17
2019-01-19T07:39:20.905Z,-944.65
2019-01-19T07:40:21.055Z,-943.10
2019-01-19T07:41:21.202Z,-943.54
2019-01-19T07:42:21.356Z,-945.17
2019-01-19T07:43:21.551Z,-944.19
2019-01-19T07:44:21.708Z,-944.61
2019-01-19T07:45:21.873Z,-946.77
2019-01-19T07:46:22.021Z,-950.78
2019-01-19T07:47:22.180Z,-950.73
2019-01-19T07:48:22.359Z,-945.63
2019-01-19T07:49:22.507Z,-945.99
2019-01-19T07:50:22.683Z,-951.10
2019-01-19T07:51:22.907Z,-953.97
2019-01-19T07:52:23.105Z,-952.39
2019-01-19T07:53:23.188Z,-947.68
2019-01-19T07:54:23.316Z,-947.28
2019-01-19T07:55:23.508Z,-949.30
2019-01-19T07:56:24.846Z,-948.83
2019-01-19T07:57:30.964Z,-947.03
2019-01-19T07:58:24.997Z,-949.47
2019-01-19T07:59:24.138Z,-953.43
2019-01-19T08:00:24.468Z,-951.96
2019-01-19T08:01:24.457Z,-951.21
2019-01-19T08:02:24.632Z,-952.28
2019-01-19T08:03:24.801Z,-949.40
2019-01-19T08:04:24.952Z,-950.42
2019-01-19T08:05:25.120Z,-945.95
2019-01-19T08:06:25.259Z,-952.32
2019-01-19T08:07:25.452Z,-949.76
2019-01-19T08:08:26.884Z,-950.30
2019-01-19T08:09:25.745Z,-952.67
2019-01-19T08:10:25.928Z,-950.28
2019-01-19T08:11:26.054Z,-951.89
2019-01-19T08:12:26.240Z,-952.01
2019-01-19T08:13:26.409Z,-905.44
2019-01-19T08:14:26.555Z,-947.20
2019-01-19T08:15:26.745Z,-954.88
2019-01-19T08:16:27.106Z,-952.58
2019-01-19T08:17:26.931Z,-953.91
2019-01-19T08:18:27.125Z,-950.44
2019-01-19T08:19:27.312Z,-949.28
2019-01-19T08:20:27.427Z,-951.35
2019-01-19T08:21:27.575Z,-952.61
2019-01-19T08:22:27.720Z,-950.79
2019-01-19T08:23:27.910Z,-952.92
2019-01-19T08:24:28.095Z,-953.72
2019-01-19T08:25:28.331Z,-951.29
2019-01-19T08:26:28.419Z,-951.95
2019-01-19T08:27:28.581Z,-953.13
2019-01-19T08:28:28.771Z,-951.19
2019-01-19T08:29:28.915Z,-950.82
2019-01-19T08:30:29.114Z,-953.56
2019-01-19T08:31:29.236Z,-948.71
2019-01-19T08:32:29.428Z,-950.60
2019-01-19T08:33:29.681Z,-949.78
2019-01-19T08:34:29.716Z,-950.53
2019-01-19T08:35:29.891Z,-950.84
2019-01-19T08:36:30.036Z,-953.64
2019-01-19T08:37:30.186Z,-952.20
2019-01-19T08:38:30.352Z,-943.49
2019-01-19T08:39:30.513Z,-948.98
2019-01-19T08:40:30.689Z,-947.57
2019-01-19T08:41:30.944Z,-948.18
2019-01-19T08:42:30.978Z,-946.01
2019-01-19T08:43:31.171Z,-944.88
2019-01-19T08:44:31.341Z,-940.50
2019-01-19T08:45:31.494Z,-944.43
2019-01-19T08:46:31.670Z,-945.35
2019-01-19T08:47:31.837Z,-941.97
2019-01-19T08:48:32.009Z,-947.18
2019-01-19T08:49:32.169Z,-945.34
2019-01-19T08:50:32.298Z,-946.02
2019-01-19T08:51:32.489Z,-948.00
2019-01-19T08:52:32.636Z,-947.40
2019-01-19T08:53:32.821Z,-950.76
2019-01-19T08:54:33.184Z,-949.81
2019-01-19T08:55:33.120Z,-948.35
2019-01-19T08:56:33.288Z,-939.87
2019-01-19T08:57:33.517Z,-938.30
2019-01-19T08:58:33.600Z,-929.66
2019-01-19T08:59:33.760Z,-940.44
2019-01-19T09:00:33.904Z,-944.34
2019-01-19T09:01:34.095Z,-938.70
2019-01-19T09:02:34.258Z,-941.91
2019-01-19T09:03:34.442Z,-949.22
2019-01-19T09:04:34.559Z,-945.25
2019-01-19T09:05:34.765Z,-949.20
2019-01-19T09:06:34.995Z,-949.02
2019-01-19T09:07:35.053Z,-944.51
2019-01-19T09:08:35.247Z,-944.63
2019-01-19T09:09:35.374Z,-939.57
2019-01-19T09:10:35.535Z,-943.17
2019-01-19T09:11:35.696Z,-944.43
2019-01-19T09:12:35.875Z,-941.44
2019-01-19T09:13:36.055Z,-943.47
2019-01-19T09:14:36.314Z,-926.39
2019-01-19T09:15:36.347Z,-934.94
2019-01-19T09:16:39.616Z,-873.63
2019-01-19T09:17:37.684Z,-873.88
2019-01-19T09:18:36.859Z,-888.03
2019-01-19T09:19:36.998Z,-886.23
2019-01-19T09:20:37.159Z,-890.04
2019-01-19T09:21:37.342Z,-892.62
2019-01-19T09:22:37.521Z,-894.10
2019-01-19T09:23:37.654Z,-887.46
2019-01-19T09:24:37.793Z,-891.37
2019-01-19T09:25:37.952Z,-892.15
2019-01-19T09:26:38.145Z,-895.02
2019-01-19T09:27:38.269Z,-889.41
2019-01-19T09:28:38.453Z,-892.55
2019-01-19T09:29:38.594Z,-895.36
2019-01-19T09:30:38.792Z,-897.95
2019-01-19T09:31:38.915Z,-884.89
2019-01-19T09:32:39.063Z,-888.91
2019-01-19T09:33:39.239Z,-893.70
2019-01-19T09:34:39.381Z,-890.88
2019-01-19T09:35:39.559Z,-842.03
2019-01-19T09:36:39.743Z,-888.24
2019-01-19T09:37:40.976Z,-890.52
2019-01-19T09:38:40.100Z,-892.39
2019-01-19T09:39:40.255Z,-892.16
2019-01-19T09:40:40.372Z,-884.91
2019-01-19T09:41:40.572Z,-884.97
2019-01-19T09:42:40.691Z,-884.54
2019-01-19T09:43:40.897Z,-884.68
2019-01-19T09:44:41.037Z,-891.43
2019-01-19T09:45:41.217Z,-893.25
2019-01-19T09:46:41.372Z,-889.82
2019-01-19T09:47:41.625Z,-889.48
2019-01-19T09:48:41.674Z,-894.93
2019-01-19T09:49:41.805Z,-892.57
2019-01-19T09:50:41.982Z,-889.69
2019-01-19T09:51:42.183Z,-890.81
2019-01-19T09:52:42.318Z,-889.87
2019-01-19T09:53:42.472Z,-891.34
2019-01-19T09:54:42.651Z,-888.28
2019-01-19T09:55:42.926Z,-888.46
2019-01-19T09:56:42.994Z,-888.65
2019-01-19T09:57:43.135Z,-889.47
2019-01-19T09:58:43.294Z,-894.23
2019-01-19T09:59:43.475Z,-890.34
2019-01-19T10:00:45.771Z,-891.48
2019-01-19T10:01:43.809Z,-895.29
2019-01-19T10:02:43.949Z,-888.40
2019-01-19T10:03:44.172Z,-893.44
2019-01-19T10:04:44.263Z,-894.17
2019-01-19T10:05:44.404Z,-901.08
2019-01-19T10:06:44.576Z,-896.15
2019-01-19T10:07:48.431Z,-894.27
2019-01-19T10:08:44.913Z,-886.65
2019-01-19T10:09:45.143Z,-883.78
2019-01-19T10:10:45.222Z,-883.91
2019-01-19T10:11:45.476Z,-896.29
2019-01-19T10:12:45.514Z,-887.61
2019-01-19T10:13:45.690Z,-896.74
2019-01-19T10:14:45.873Z,-894.95
2019-01-19T10:15:46.018Z,-897.99
2019-01-19T10:16:46.208Z,-895.93
2019-01-19T10:17:46.352Z,-891.90
2019-01-19T10:18:46.488Z,-893.76
2019-01-19T10:19:46.708Z,-895.34
2019-01-19T10:20:46.889Z,-893.75
2019-01-19T10:21:47.026Z,-896.64
2019-01-19T10:22:47.143Z,-897.22
2019-01-19T10:23:47.334Z,-898.33
2019-01-19T10:24:47.503Z,-904.48
2019-01-19T10:25:47.629Z,-901.27
2019-01-19T10:26:47.807Z,-901.89
2019-01-19T10:27:47.957Z,-898.69
2019-01-19T10:28:48.232Z,-899.58
2019-01-19T10:29:48.284Z,-902.41
2019-01-19T10:30:48.428Z,-901.17
2019-01-19T10:31:48.614Z,-898.60
2019-01-19T10:32:48.993Z,-903.14
2019-01-19T10:33:48.910Z,-904.92
2019-01-19T10:34:49.071Z,-904.07
2019-01-19T10:35:49.238Z,-888.98
2019-01-19T10:36:49.505Z,-894.19
2019-01-19T10:37:55.743Z,-903.96
2019-01-19T10:38:50.710Z,-908.73
2019-01-19T10:39:49.870Z,-904.42
2019-01-19T10:40:50.033Z,-903.95
2019-01-19T10:41:50.223Z,-902.06
2019-01-19T10:42:50.353Z,-903.14
2019-01-19T10:43:50.517Z,-906.61
2019-01-19T10:44:50.740Z,-902.65
2019-01-19T10:45:50.800Z,-898.02
2019-01-19T10:46:51.007Z,-902.57
2019-01-19T10:47:51.146Z,-900.14
2019-01-19T10:48:51.303Z,-909.79
2019-01-19T10:49:51.477Z,-907.35
2019-01-19T10:50:51.626Z,-906.90
2019-01-19T10:51:51.777Z,-910.95
2019-01-19T10:52:52.002Z,-907.75
2019-01-19T10:53:52.121Z,-907.92
2019-01-19T10:54:52.305Z,-906.11
2019-01-19T10:55:53.199Z,-898.89
2019-01-19T10:56:52.646Z,-896.27
2019-01-19T10:57:52.771Z,-905.30
2019-01-19T10:58:52.946Z,-905.34
2019-01-19T10:59:53.166Z,-905.98
2019-01-19T11:00:53.286Z,-908.69
2019-01-19T11:01:53.467Z,-911.42
2019-01-19T11:02:53.606Z,-906.72
2019-01-19T11:03:53.780Z,-908.75
2019-01-19T11:04:53.967Z,-905.48
2019-01-19T11:05:54.102Z,-899.78
2019-01-19T11:06:54.263Z,-903.18
2019-01-19T11:07:54.455Z,-902.81
2019-01-19T11:08:54.573Z,-908.60
2019-01-19T11:09:54.902Z,-914.26
2019-01-19T11:10:54.904Z,-910.14
2019-01-19T11:11:55.064Z,-913.58
2019-01-19T11:12:55.232Z,-914.54
2019-01-19T11:13:55.545Z,-905.46
2019-01-19T11:14:55.584Z,-903.77
2019-01-19T11:15:55.717Z,-862.40
2019-01-19T11:16:55.879Z,-879.44
2019-01-19T11:17:56.129Z,-890.89
2019-01-19T11:18:56.170Z,-901.70
2019-01-19T11:19:56.366Z,-897.08
2019-01-19T11:20:56.511Z,-903.03
2019-01-19T11:21:56.670Z,-895.35
2019-01-19T11:22:56.858Z,-893.15
2019-01-19T11:23:56.994Z,-908.96
2019-01-19T11:24:57.222Z,-906.18
2019-01-19T11:25:57.352Z,-906.21
2019-01-19T11:26:57.477Z,-900.22
2019-01-19T11:27:57.641Z,-893.62
2019-01-19T11:28:57.785Z,-904.33
2019-01-19T11:29:57.960Z,-904.16
2019-01-19T11:30:58.087Z,-905.63
2019-01-19T11:31:58.276Z,-911.00
2019-01-19T11:32:58.482Z,-908.10
2019-01-19T11:33:58.650Z,-902.56
2019-01-19T11:34:58.834Z,-893.92
2019-01-19T11:35:58.970Z,-900.36
2019-01-19T11:36:59.092Z,-903.27
2019-01-19T11:37:59.292Z,-906.27
2019-01-19T11:38:59.427Z,-907.17
2019-01-19T11:39:59.607Z,-909.69
2019-01-19T11:40:59.749Z,-911.16
2019-01-19T11:41:59.914Z,-904.77
2019-01-19T11:43:00.207Z,-901.13
2019-01-19T11:44:00.250Z,-904.86
2019-01-19T11:45:00.427Z,-885.78
2019-01-19T11:46:00.570Z,-906.14
2019-01-19T11:47:00.716Z,-898.88
2019-01-19T11:48:00.916Z,-895.58
2019-01-19T11:49:01.060Z,-892.14
2019-01-19T11:50:01.240Z,-901.07
2019-01-19T11:51:01.492Z,-904.97
2019-01-19T11:52:01.533Z,-911.11
2019-01-19T11:53:01.795Z,-913.50
2019-01-19T11:54:01.867Z,-912.05
2019-01-19T11:55:02.038Z,-913.47
2019-01-19T11:56:02.190Z,-914.72
2019-01-19T11:57:02.333Z,-918.59
2019-01-19T11:58:02.517Z,-914.84
2019-01-19T11:59:02.746Z,-908.05
2019-01-19T12:00:02.875Z,-914.69
2019-01-19T12:01:03.014Z,-908.29
2019-01-19T12:02:03.181Z,-906.06
2019-01-19T12:03:03.356Z,-907.84
2019-01-19T12:04:03.485Z,-908.04
2019-01-19T12:05:03.666Z,-905.53
2019-01-19T12:06:03.846Z,-902.42
2019-01-19T12:07:04.046Z,-899.08